ADDS METAR Data INFO
IDs: Format: Raw Decoded Include TAF

Data at: 2026 UTC 20 Jul 2018

KHSB 202015Z AUTO 23010G17KT 10SM CLR 33/25 A2980 RMK AO2 T03300249
KHSB 201955Z AUTO 23008KT 10SM CLR 33/26 A2980 RMK AO2 T03310257
KHSB 201935Z AUTO 23011G16KT 10SM CLR 33/26 A2981 RMK AO2 T03290259
KHSB 201915Z AUTO 23012G15KT 10SM SCT028 SCT090 32/26 A2982 RMK AO2 LTG DSNT SE T03220259
KHSB 201855Z AUTO 22010KT 10SM BKN090 32/26 A2983 RMK AO2 T03190264
KHSB 201835Z AUTO 23010KT 10SM SCT090 32/25 A2984 RMK AO2 LTG DSNT SE T03200250
KHSB 201815Z AUTO 23007KT 10SM SCT090 32/26 A2984 RMK AO2 T03220258
KHSB 201755Z AUTO 22007KT 210V270 10SM CLR 32/25 A2984 RMK AO2 T03240254 10324 20240
KHSB 201735Z AUTO 25006KT 10SM SCT032 SCT110 32/26 A2986 RMK AO2 T03200255
KHSB 201715Z AUTO 26008KT 10SM SCT028 SCT034 SCT110 32/25 A2986 RMK AO2 T03170253
KHSB 201655Z AUTO 24009KT 10SM SCT028 31/25 A2987 RMK AO2 T03120254
KHSB 201635Z AUTO 24005KT 10SM CLR 31/25 A2986 RMK AO2 T03080254
KHSB 201615Z AUTO 24007KT 10SM CLR 30/25 A2986 RMK AO2 T03040247
KHSB 201555Z AUTO 23008KT 200V260 10SM CLR 30/25 A2986 RMK AO2 T02980248
KHSB 201535Z AUTO 27008KT 10SM SCT100 29/25 A2986 RMK AO2 T02940251
KHSB 201515Z AUTO 23004KT 10SM SCT100 29/25 A2985 RMK AO2 T02850248
KHSB 201455Z AUTO 23006KT 10SM SCT015 28/25 A2986 RMK AO2 T02820250
KHSB 201435Z AUTO 22010KT 10SM SCT013 27/25 A2987 RMK AO2 T02720247
KHSB 201415Z AUTO 24008KT 10SM BKN013 BKN028 BKN120 27/25 A2987 RMK AO2 LTG DSNT S T02670246
KHSB 201355Z AUTO 22010KT 10SM VCTS OVC013 27/25 A2988 RMK AO2 LTG DSNT SW T02660245
KHSB 201335Z AUTO 23008KT 10SM BKN013 OVC110 26/24 A2989 RMK AO2 LTG DSNT W T02620239
KHSB 201315Z AUTO 22008KT 10SM BKN120 27/24 A2988 RMK AO2 T02660244
KHSB 201255Z AUTO 22008KT 10SM BKN120 26/24 A2986 RMK AO2 T02600240
KHSB 201235Z AUTO 22007KT 10SM CLR 25/24 A2987 RMK AO2 T02520237
KHSB 201215Z AUTO 21003KT 10SM CLR 25/24 A2986 RMK AO2 T02450235
KHSB 201155Z AUTO 22003KT 10SM CLR 24/23 A2987 RMK AO2 T02390230 10239 20211
KHSB 201135Z AUTO 22004KT 10SM CLR 23/23 A2986 RMK AO2 T02310226
KHSB 201115Z AUTO 00000KT 10SM CLR 22/22 A2985 RMK AO2 T02240223
KHSB 201055Z AUTO 00000KT 7SM CLR 22/22 A2986 RMK AO2 T02150215
KHSB 201035Z AUTO 15003KT 7SM CLR 21/21 A2985 RMK AO2 T02120212
KHSB 201015Z AUTO 00000KT 7SM CLR 22/22 A2986 RMK AO2 T02160216
KHSB 200955Z AUTO 00000KT 10SM CLR 22/22 A2985 RMK AO2 T02180216
KHSB 200935Z AUTO 00000KT 10SM CLR 22/22 A2985 RMK AO2 T02190218
KHSB 200915Z AUTO 09003KT 10SM CLR 22/22 A2985 RMK AO2 T02160216
KHSB 200855Z AUTO 00000KT 10SM CLR 22/22 A2985 RMK AO2 T02160216
KHSB 200835Z AUTO 12003KT 10SM CLR 22/22 A2985 RMK AO2 T02150215
KHSB 200815Z AUTO 00000KT 10SM CLR 22/22 A2986 RMK AO2 T02170217
KHSB 200755Z AUTO 00000KT 10SM CLR 22/22 A2986 RMK AO2 T02200220
KHSB 200735Z AUTO 00000KT 10SM CLR 22/22 A2986 RMK AO2 LTG DSNT NE T02190219
KHSB 200715Z AUTO 00000KT 10SM CLR 22/22 A2987 RMK AO2 T02240220
KHSB 200655Z AUTO 00000KT 10SM CLR 23/22 A2987 RMK AO2 LTG DSNT N T02260222
KHSB 200635Z AUTO 00000KT 10SM CLR 23/22 A2987 RMK AO2 LTG DSNT N T02280224
KHSB 200615Z AUTO 00000KT 10SM CLR 24/23 A2987 RMK AO2 LTG DSNT N T02370227
KHSB 200555Z AUTO 17003KT 10SM CLR 24/23 A2988 RMK AO2 T02350227 10287 20234 403110174
KHSB 200535Z AUTO 00000KT 10SM CLR 24/23 A2989 RMK AO2 T02370226
KHSB 200515Z AUTO 00000KT 10SM CLR 23/23 A2989 RMK AO2 T02340226
KHSB 200455Z AUTO 00000KT 10SM CLR 24/23 A2989 RMK AO2 T02370227
KHSB 200435Z AUTO 00000KT 10SM CLR 24/23 A2988 RMK AO2 T02370227
KHSB 200415Z AUTO 15003KT 10SM SCT048 24/23 A2988 RMK AO2 T02370231
KHSB 200355Z AUTO 00000KT 10SM SCT048 24/23 A2988 RMK AO2 T02400232
KHSB 200335Z AUTO 00000KT 10SM SCT046 SCT050 24/23 A2988 RMK AO2 T02410234
KHSB 200315Z AUTO 13003KT 10SM CLR 25/23 A2988 RMK AO2 T02450233
KHSB 200255Z AUTO 13005KT 10SM CLR 24/24 A2987 RMK AO2 T02420235
KHSB 200235Z AUTO 13004KT 10SM CLR 25/24 A2987 RMK AO2 T02450236
KHSB 200215Z AUTO 00000KT 10SM CLR 25/24 A2986 RMK AO2 T02480237
KHSB 200155Z AUTO 14003KT 10SM CLR 25/24 A2985 RMK AO2 T02510237
KHSB 200135Z AUTO 00000KT 10SM CLR 25/24 A2986 RMK AO2 T02520237
KHSB 200115Z AUTO 00000KT 7SM CLR 26/24 A2987 RMK AO2 LTG DSNT S T02580237
KHSB 200055Z AUTO 14003KT 10SM CLR 27/24 A2987 RMK AO2 T02660238
KHSB 200035Z AUTO 14003KT 10SM CLR 27/24 A2987 RMK AO2 T02730238
KHSB 200015Z AUTO 14003KT 10SM CLR 28/24 A2987 RMK AO2 LTG DSNT S T02810235
KHSB 192355Z AUTO 14004KT 10SM CLR 29/23 A2987 RMK AO2 T02880233 10311 20288
KHSB 192335Z AUTO 13006KT 10SM CLR 29/23 A2986 RMK AO2 T02900227
KHSB 192315Z AUTO 14006KT 10SM CLR 30/23 A2987 RMK AO2 T02980226
KHSB 192255Z AUTO 14004KT 10SM CLR 30/24 A2988 RMK AO2 T03010236
KHSB 192235Z AUTO 13004KT 10SM SCT085 30/23 A2989 RMK AO2 T02960229
KHSB 192215Z AUTO 15004KT 10SM SCT048 BKN085 30/24 A2990 RMK AO2 T02960237
KHSB 192155Z AUTO 14005KT 10SM BKN085 30/23 A2990 RMK AO2 T03000228
KHSB 192135Z AUTO 14003KT 10SM SCT048 SCT055 BKN085 30/23 A2990 RMK AO2 T02980228
KHSB 192115Z AUTO 13005KT 10SM SCT050 30/23 A2990 RMK AO2 T03000229
KHSB 192055Z AUTO 16004KT 10SM CLR 31/24 A2990 RMK AO2 T03080235
KHSB 192035Z AUTO 14005KT 10SM SCT045 SCT120 30/22 A2991 RMK AO2 T03040224
KHSB 192015Z AUTO 13005KT 10SM SCT043 SCT120 30/22 A2991 RMK AO2 T03000224
KHSB 191955Z AUTO 13003KT 10SM SCT043 SCT120 30/22 A2992 RMK AO2 T02950216
KHSB 191935Z AUTO 15005KT 10SM SCT120 31/22 A2993 RMK AO2 T03090220
KHSB 191915Z AUTO 20003KT 10SM BKN120 30/22 A2994 RMK AO2 LTG DSNT N T02970218
KHSB 191855Z AUTO 18004KT 10SM SCT120 30/22 A2994 RMK AO2 T03010215
KHSB 191835Z AUTO 14006KT 10SM CLR 31/21 A2994 RMK AO2 T03050208
KHSB 191815Z AUTO 15004KT 10SM CLR 30/21 A2994 RMK AO2 T03020207
KHSB 191755Z AUTO 15005KT 10SM SCT120 29/21 A2995 RMK AO2 T02900207 10297 20190
KHSB 191735Z AUTO 14003KT 10SM BKN120 29/21 A2996 RMK AO2 T02910210
KHSB 191715Z AUTO 11005KT 10SM CLR 29/21 A2996 RMK AO2 T02850210
KHSB 191655Z AUTO 12004KT 10SM SCT120 28/21 A2997 RMK AO2 T02800213
KHSB 191635Z AUTO 14004KT 10SM BKN120 28/21 A2997 RMK AO2 T02780208
KHSB 191615Z AUTO 13004KT 10SM BKN120 27/20 A2997 RMK AO2 T02740202
KHSB 191555Z AUTO 15004KT 10SM SCT120 27/21 A2997 RMK AO2 T02690206
KHSB 191535Z AUTO 13006KT 10SM SCT120 26/20 A2997 RMK AO2 T02640196
KHSB 191515Z AUTO 13004KT 10SM CLR 26/20 A2997 RMK AO2 T02610199
KHSB 191455Z AUTO 13004KT 10SM CLR 26/19 A2998 RMK AO2 T02560193
KHSB 191435Z AUTO 00000KT 10SM CLR 25/19 A2998 RMK AO2 T02530194
KHSB 191415Z AUTO 00000KT 10SM CLR 25/19 A2998 RMK AO2 T02470187
KHSB 191355Z AUTO 13003KT 10SM CLR 24/19 A2999 RMK AO2 T02350190
KHSB 191335Z AUTO 14003KT 10SM CLR 23/19 A2998 RMK AO2 T02310192
KHSB 191315Z AUTO 14003KT 10SM CLR 22/20 A2999 RMK AO2 T02230197
KHSB 191255Z AUTO 00000KT 10SM CLR 22/19 A2999 RMK AO2 T02150188
KHSB 191235Z AUTO 00000KT 10SM CLR 21/18 A2999 RMK AO2 T02070184
KHSB 191215Z AUTO 00000KT 10SM CLR 20/19 A2999 RMK AO2 T01990186
KHSB 191155Z AUTO 00000KT 10SM CLR 19/18 A2999 RMK AO2 T01900181 10195 20174
KHSB 191135Z AUTO 00000KT 10SM CLR 18/18 A2998 RMK AO2 T01810177
KHSB 191115Z AUTO 00000KT 10SM CLR 18/18 A2998 RMK AO2 T01750175
KHSB 191055Z AUTO 00000KT 10SM CLR 18/17 A2998 RMK AO2 T01750174
KHSB 191035Z AUTO 00000KT 10SM CLR 18/17 A2997 RMK AO2 T01760172
KHSB 191015Z AUTO 00000KT 10SM CLR 18/18 A2997 RMK AO2 T01770175
KHSB 190955Z AUTO 00000KT 10SM CLR 18/17 A2997 RMK AO2 T01760172
KHSB 190935Z AUTO 00000KT 10SM CLR 18/17 A2997 RMK AO2 T01750170
KHSB 190915Z AUTO 00000KT 10SM CLR 18/17 A2997 RMK AO2 T01760169
KHSB 190855Z AUTO 00000KT 10SM CLR 18/17 A2997 RMK AO2 T01790171
KHSB 190835Z AUTO 00000KT 10SM CLR 18/17 A2997 RMK AO2 T01780172